首页
METAR-TAF:

METAR-TAF

机场 :

梅赫拉巴德國際機場

德黑兰, 伊朗

纬度: 35-41N, 经度: 051-21E, 海拔: 1204米

当前天气观测

该预报发布于41分钟前的23:00 UTC
风速6节,风向西北
温度 7°C
湿度 70%
气压 1022 hPa
能見度: 7000

METAR: OIII 142300Z 31006KT 7000 NSC 07/02 Q1022 A3019 NOSIG

时间: 03:11 (23:41 UTC)

预报

该预报发布于5小时和51分钟前的17:50 UTC
预报有效从14日的 18点(UTC)到 15日的 24点(UTC)
风速6节,风向西北
能見度: 6000
成为
从 14日的 20点(UTC)到 14日的 22点(UTC)
能見度: 5000
短暂存在
从 15日的 00点(UTC)到 15日的 05点(UTC)
能見度: 3000
成为
从 15日的 06点(UTC)到 15日的 08点(UTC)
能見度: 7000
短暂存在
从 15日的 09点(UTC)到 15日的 15点(UTC)
风速16节,风向西

TAF: OIII 141750Z 1418/1524 32006KT 6000 NSC BECMG 1420/1422 5000 HZ TEMPO 1500/1505 3000 HZ BECMG 1506/1508 7000 TEMPO 1509/1515 28016KT

超过4000个机场的气象观测和天气预报(METAR&TAF报告)。

可查询的气象台以黄色和红色小点在地图上表示。

将鼠标移到小点上方,可查看气象台名称。

然后点击查看天气观测和预报。

如需切换地图:点击带黑十字的绿色按钮放大地图;点击带横线的绿色按钮缩小地图;或者点击绿色箭头查看邻近地区的地图。


METAR-TAF: